createdAt,value
2022-10-29T00:01:14.044Z,15.60
2022-10-29T00:05:17.644Z,15.55
2022-10-29T00:09:19.615Z,16.73
2022-10-29T00:13:22.002Z,16.23
2022-10-29T00:17:23.919Z,18.58
2022-10-29T00:21:26.948Z,17.27
2022-10-29T00:25:28.990Z,18.00
2022-10-29T00:29:30.767Z,17.42
2022-10-29T00:33:33.043Z,16.63
2022-10-29T00:37:35.897Z,17.10
2022-10-29T00:41:37.724Z,16.38
2022-10-29T00:45:45.054Z,17.73
2022-10-29T00:50:15.661Z,17.38
2022-10-29T00:54:18.746Z,16.33
2022-10-29T00:58:21.880Z,16.75
2022-10-29T01:02:24.529Z,15.32
2022-10-29T01:06:29.005Z,15.57
2022-10-29T01:10:44.898Z,14.85
2022-10-29T01:15:02.148Z,17.20
2022-10-29T01:19:41.693Z,15.93
2022-10-29T01:24:09.938Z,16.10
2022-10-29T01:32:35.870Z,18.10
2022-10-29T01:37:16.461Z,16.30
2022-10-29T01:41:28.119Z,16.75
2022-10-29T01:45:46.663Z,16.55
2022-10-29T01:49:53.880Z,15.60
2022-10-29T01:53:58.007Z,15.88
2022-10-29T01:57:59.867Z,16.77
2022-10-29T02:02:07.187Z,17.27
2022-10-29T02:06:27.280Z,15.45
2022-10-29T02:10:40.207Z,15.50
2022-10-29T02:14:53.934Z,18.48
2022-10-29T02:18:58.084Z,17.83
2022-10-29T02:23:00.627Z,16.70
2022-10-29T02:27:02.303Z,16.95
2022-10-29T02:31:04.599Z,17.48
2022-10-29T02:35:07.076Z,18.70
2022-10-29T02:39:09.705Z,18.05
2022-10-29T02:43:12.082Z,17.65
2022-10-29T02:47:13.903Z,18.17
2022-10-29T02:51:16.737Z,18.48
2022-10-29T02:55:18.870Z,18.08
2022-10-29T02:59:20.502Z,17.63
2022-10-29T03:03:22.493Z,16.65
2022-10-29T03:07:24.212Z,17.90
2022-10-29T03:11:26.010Z,16.48
2022-10-29T03:15:28.360Z,16.38
2022-10-29T03:19:30.420Z,16.13
2022-10-29T03:23:32.049Z,16.88
2022-10-29T03:27:40.990Z,17.88
2022-10-29T03:35:44.458Z,15.00
2022-10-29T03:39:46.206Z,17.73
2022-10-29T03:43:48.065Z,17.02
2022-10-29T03:47:49.915Z,15.60
2022-10-29T03:51:51.876Z,13.88
2022-10-29T03:55:55.606Z,16.40
2022-10-29T03:59:57.629Z,14.80
2022-10-29T04:03:59.379Z,15.80
2022-10-29T04:08:01.276Z,15.18
2022-10-29T04:12:03.875Z,16.15
2022-10-29T04:16:06.093Z,15.43
2022-10-29T04:20:19.006Z,14.50
2022-10-29T04:28:52.273Z,15.52
2022-10-29T04:32:58.903Z,16.15
2022-10-29T04:37:01.230Z,15.07
2022-10-29T04:41:04.040Z,13.90
2022-10-29T04:45:07.740Z,13.85
2022-10-29T04:49:09.852Z,13.60
2022-10-29T04:53:12.272Z,14.60
2022-10-29T04:57:14.118Z,14.82
2022-10-29T05:01:15.921Z,14.05
2022-10-29T05:05:20.220Z,15.45
2022-10-29T05:09:21.868Z,14.43
2022-10-29T05:13:23.741Z,14.63
2022-10-29T05:17:25.655Z,13.52
2022-10-29T05:21:27.558Z,13.95
2022-10-29T05:25:30.565Z,13.93
2022-10-29T05:29:32.595Z,14.98
2022-10-29T05:33:34.285Z,14.27
2022-10-29T05:37:36.109Z,13.65
2022-10-29T05:41:37.794Z,14.05
2022-10-29T05:45:40.070Z,13.52
2022-10-29T05:49:42.273Z,14.02
2022-10-29T05:53:44.164Z,15.43
2022-10-29T05:57:45.794Z,13.18
2022-10-29T06:01:47.777Z,12.93
2022-10-29T06:05:50.612Z,13.88
2022-10-29T06:09:52.404Z,13.07
2022-10-29T06:13:57.194Z,13.98
2022-10-29T06:17:59.188Z,14.45
2022-10-29T06:22:00.927Z,12.82
2022-10-29T06:26:03.501Z,14.10
2022-10-29T06:30:06.128Z,14.43
2022-10-29T06:34:07.955Z,12.25
2022-10-29T06:38:12.410Z,12.93
2022-10-29T06:42:14.612Z,12.35
2022-10-29T06:46:16.316Z,12.13
2022-10-29T06:50:18.174Z,11.82
2022-10-29T06:54:19.985Z,12.85
2022-10-29T06:58:21.880Z,12.40
2022-10-29T07:02:24.066Z,13.20
2022-10-29T07:06:26.238Z,11.82
2022-10-29T07:10:32.667Z,12.07
2022-10-29T07:14:34.536Z,11.95
2022-10-29T07:18:36.274Z,12.15
2022-10-29T07:22:38.061Z,9.93
2022-10-29T07:26:40.072Z,9.32
2022-10-29T07:30:43.051Z,9.25
2022-10-29T07:34:44.701Z,8.77
2022-10-29T07:38:47.054Z,8.20
2022-10-29T07:42:52.580Z,8.68
2022-10-29T07:46:54.492Z,8.55
2022-10-29T07:50:59.094Z,8.15
2022-10-29T07:55:02.734Z,8.68
2022-10-29T07:59:04.469Z,9.68
2022-10-29T08:03:07.020Z,8.65
2022-10-29T08:07:08.768Z,9.15
2022-10-29T08:11:10.591Z,9.00
2022-10-29T08:15:12.307Z,8.70
2022-10-29T08:19:15.116Z,8.52
2022-10-29T08:23:16.785Z,8.48
2022-10-29T08:27:18.600Z,8.88
2022-10-29T08:31:20.420Z,8.48
2022-10-29T08:35:22.566Z,9.40
2022-10-29T08:39:24.285Z,8.30
2022-10-29T08:43:40.111Z,8.93
2022-10-29T08:48:09.089Z,9.57
2022-10-29T08:52:19.888Z,8.88
2022-10-29T08:56:28.765Z,9.55
2022-10-29T09:00:34.107Z,11.80
2022-10-29T09:04:38.382Z,9.98
2022-10-29T09:08:58.494Z,9.63
2022-10-29T09:13:22.599Z,10.13
2022-10-29T09:17:43.191Z,10.27
2022-10-29T09:22:03.042Z,9.60
2022-10-29T09:26:11.319Z,10.38
2022-10-29T09:30:17.819Z,10.25
2022-10-29T09:34:31.681Z,10.45
2022-10-29T09:38:42.230Z,11.68
2022-10-29T09:42:47.364Z,11.07
2022-10-29T09:47:33.684Z,10.02
2022-10-29T09:51:57.480Z,10.73
2022-10-29T09:55:59.241Z,11.20
2022-10-29T10:00:06.463Z,13.20
2022-10-29T10:04:27.806Z,13.80
2022-10-29T10:08:31.027Z,14.75
2022-10-29T10:12:38.737Z,14.82
2022-10-29T10:16:40.984Z,15.30
2022-10-29T10:20:45.709Z,14.18
2022-10-29T10:24:48.260Z,15.55
2022-10-29T10:29:10.959Z,15.65
2022-10-29T10:33:25.237Z,16.25
2022-10-29T10:37:33.381Z,18.00
2022-10-29T10:41:35.510Z,18.02
2022-10-29T10:45:40.174Z,17.75
2022-10-29T10:49:42.063Z,19.30
2022-10-29T10:53:44.092Z,19.42
2022-10-29T10:57:55.920Z,20.27
2022-10-29T11:02:00.661Z,19.88
2022-10-29T11:06:11.768Z,18.23
2022-10-29T11:10:17.640Z,17.27
2022-10-29T11:14:30.436Z,19.48
2022-10-29T11:18:38.010Z,18.85
2022-10-29T11:22:53.225Z,16.13
2022-10-29T11:27:04.781Z,17.65
2022-10-29T11:31:20.426Z,16.30
2022-10-29T11:35:43.390Z,17.10
2022-10-29T11:39:51.318Z,17.95
2022-10-29T11:43:53.043Z,16.23
2022-10-29T11:48:38.336Z,17.10
2022-10-29T11:52:50.067Z,17.73
2022-10-29T11:57:03.072Z,17.70
2022-10-29T12:01:16.846Z,17.75
2022-10-29T12:05:42.316Z,15.80
2022-10-29T12:10:03.444Z,14.68
2022-10-29T12:14:37.647Z,14.48
2022-10-29T12:19:17.991Z,16.15
2022-10-29T12:23:54.459Z,13.52
2022-10-29T12:28:18.979Z,13.68
2022-10-29T12:32:50.912Z,14.88
2022-10-29T12:37:15.271Z,14.85
2022-10-29T12:41:35.912Z,14.25
2022-10-29T12:46:21.680Z,13.98
2022-10-29T12:50:39.740Z,12.93
2022-10-29T12:54:44.859Z,13.82
2022-10-29T12:58:52.829Z,14.70
2022-10-29T13:02:56.179Z,13.80
2022-10-29T13:06:58.228Z,14.00
2022-10-29T13:11:00.329Z,12.02
2022-10-29T13:15:08.747Z,12.55
2022-10-29T13:19:19.354Z,11.00
2022-10-29T13:23:21.995Z,10.90
2022-10-29T13:27:23.608Z,12.25
2022-10-29T13:31:25.419Z,9.57
2022-10-29T13:35:27.503Z,11.38
2022-10-29T13:39:29.300Z,9.73
2022-10-29T13:43:32.693Z,7.68
2022-10-29T13:47:35.765Z,7.72
2022-10-29T13:52:00.562Z,6.85
2022-10-29T13:56:02.914Z,7.80
2022-10-29T14:00:08.239Z,7.80
2022-10-29T14:04:25.394Z,7.05
2022-10-29T14:08:50.744Z,7.70
2022-10-29T14:13:00.828Z,7.95
2022-10-29T14:17:14.082Z,7.63
2022-10-29T14:21:29.338Z,8.15
2022-10-29T14:25:36.261Z,8.68
2022-10-29T14:29:39.434Z,8.73
2022-10-29T14:33:43.471Z,9.27
2022-10-29T14:37:48.616Z,8.93
2022-10-29T14:41:50.792Z,9.65
2022-10-29T14:45:55.757Z,10.27
2022-10-29T14:49:58.798Z,9.90
2022-10-29T14:54:02.651Z,10.70
2022-10-29T14:58:11.481Z,11.57
2022-10-29T15:06:35.820Z,10.45
2022-10-29T15:10:52.497Z,11.38
2022-10-29T15:14:54.645Z,11.88
2022-10-29T15:18:58.685Z,11.90
2022-10-29T15:23:01.254Z,11.60
2022-10-29T15:27:04.678Z,13.27
2022-10-29T15:31:07.165Z,11.80
2022-10-29T15:35:10.491Z,12.70
2022-10-29T15:39:21.571Z,13.98
2022-10-29T15:43:29.558Z,12.88
2022-10-29T15:47:31.291Z,14.25
2022-10-29T15:51:33.302Z,14.60
2022-10-29T15:55:37.652Z,15.00
2022-10-29T15:59:40.175Z,232.07
2022-10-29T16:03:43.077Z,159.70
2022-10-29T16:07:47.900Z,83.72
2022-10-29T16:11:50.800Z,20.60
2022-10-29T16:15:52.869Z,33.10
2022-10-29T16:19:54.515Z,22.35
2022-10-29T16:23:56.308Z,20.95
2022-10-29T16:27:58.533Z,18.00
2022-10-29T16:32:00.719Z,15.95
2022-10-29T16:36:02.444Z,15.20
2022-10-29T16:40:04.965Z,17.75
2022-10-29T16:44:06.720Z,15.00
2022-10-29T16:48:08.949Z,14.90
2022-10-29T16:52:10.849Z,13.45
2022-10-29T16:56:12.601Z,14.43
2022-10-29T17:00:14.885Z,12.55
2022-10-29T17:04:16.973Z,17.25
2022-10-29T17:08:19.043Z,31.80
2022-10-29T17:12:20.822Z,16.52
2022-10-29T17:16:22.728Z,13.73
2022-10-29T17:20:24.594Z,12.38
2022-10-29T17:24:27.195Z,10.70
2022-10-29T17:28:29.202Z,10.43
2022-10-29T17:32:32.708Z,11.63
2022-10-29T17:36:36.926Z,12.85
2022-10-29T17:40:39.021Z,11.52
2022-10-29T17:44:40.791Z,12.32
2022-10-29T17:48:42.533Z,11.80
2022-10-29T17:52:44.858Z,10.63
2022-10-29T17:56:47.200Z,11.00
2022-10-29T18:00:49.113Z,11.90
2022-10-29T18:04:51.089Z,11.60
2022-10-29T18:08:53.049Z,11.73
2022-10-29T18:12:54.738Z,11.50
2022-10-29T18:16:56.585Z,13.45
2022-10-29T18:20:58.260Z,12.02
2022-10-29T18:25:00.057Z,12.48
2022-10-29T18:29:06.160Z,12.88
2022-10-29T18:33:08.320Z,11.40
2022-10-29T18:37:10.253Z,13.60
2022-10-29T18:41:12.315Z,12.35
2022-10-29T18:45:14.066Z,25.70
2022-10-29T18:49:16.172Z,16.83
2022-10-29T18:53:18.314Z,15.57
2022-10-29T18:57:20.165Z,40.75
2022-10-29T19:01:25.849Z,14.90
2022-10-29T19:05:28.135Z,13.65
2022-10-29T19:09:30.185Z,12.82
2022-10-29T19:13:32.442Z,14.05
2022-10-29T19:17:34.248Z,13.80
2022-10-29T19:21:37.810Z,12.95
2022-10-29T19:25:41.037Z,12.82
2022-10-29T19:29:43.018Z,13.55
2022-10-29T19:33:49.650Z,13.43
2022-10-29T19:37:51.489Z,13.10
2022-10-29T19:41:53.247Z,13.70
2022-10-29T19:45:55.617Z,13.52
2022-10-29T19:49:57.319Z,11.90
2022-10-29T19:54:01.933Z,13.90
2022-10-29T19:58:03.808Z,13.82
2022-10-29T20:02:05.689Z,13.02
2022-10-29T20:06:09.338Z,14.00
2022-10-29T20:10:11.226Z,14.32
2022-10-29T20:14:12.945Z,13.60
2022-10-29T20:18:14.965Z,14.55
2022-10-29T20:22:16.664Z,18.85
2022-10-29T20:26:18.581Z,17.50
2022-10-29T20:30:20.919Z,14.48
2022-10-29T20:34:22.803Z,13.95
2022-10-29T20:38:24.480Z,13.50
2022-10-29T20:42:26.524Z,13.52
2022-10-29T20:46:28.883Z,13.68
2022-10-29T20:50:30.714Z,16.25
2022-10-29T20:54:32.567Z,16.90
2022-10-29T20:58:36.669Z,18.77
2022-10-29T21:02:38.412Z,17.10
2022-10-29T21:06:40.591Z,16.73
2022-10-29T21:10:42.288Z,17.10
2022-10-29T21:14:44.048Z,17.05
2022-10-29T21:18:48.177Z,19.80
2022-10-29T21:22:50.516Z,19.98
2022-10-29T21:26:52.208Z,17.52
2022-10-29T21:30:54.226Z,17.50
2022-10-29T21:34:55.885Z,18.48
2022-10-29T21:38:57.724Z,16.48
2022-10-29T21:43:00.002Z,17.85
2022-10-29T21:47:02.101Z,15.82
2022-10-29T21:51:10.706Z,14.80
2022-10-29T21:59:14.382Z,19.02
2022-10-29T22:03:16.185Z,20.48
2022-10-29T22:07:18.082Z,21.75
2022-10-29T22:11:19.929Z,20.27
2022-10-29T22:15:21.569Z,19.90
2022-10-29T22:19:23.741Z,19.95
2022-10-29T22:23:25.561Z,24.30
2022-10-29T22:27:27.383Z,20.98
2022-10-29T22:31:29.129Z,20.00
2022-10-29T22:35:32.363Z,28.10
2022-10-29T22:39:34.068Z,32.25
2022-10-29T22:43:36.321Z,29.15
2022-10-29T22:47:38.007Z,36.03
2022-10-29T22:51:40.075Z,37.60
2022-10-29T22:55:41.799Z,39.22
2022-10-29T22:59:43.941Z,30.33
2022-10-29T23:03:46.525Z,38.60
2022-10-29T23:07:48.541Z,33.67
2022-10-29T23:11:50.187Z,35.90
2022-10-29T23:15:53.182Z,33.72
2022-10-29T23:19:56.268Z,39.95
2022-10-29T23:23:58.215Z,36.25
2022-10-29T23:28:00.073Z,41.40
2022-10-29T23:32:02.025Z,56.50
2022-10-29T23:36:05.644Z,49.65
2022-10-29T23:40:08.451Z,54.15
2022-10-29T23:44:10.316Z,48.03
2022-10-29T23:48:12.249Z,42.65
2022-10-29T23:52:15.311Z,44.17
2022-10-29T23:56:17.344Z,45.30
